sensor_id;sensor_type;location;lat;lon;timestamp;P1;durP1;ratioP1;P2;durP2;ratioP2
76409;SDS011;65238;42.662;23.280;2023-04-25T00:01:44;4.30;;;2.70;;
76409;SDS011;65238;42.662;23.280;2023-04-25T00:04:10;4.63;;;2.42;;
76409;SDS011;65238;42.662;23.280;2023-04-25T00:06:36;4.18;;;2.78;;
76409;SDS011;65238;42.662;23.280;2023-04-25T00:09:04;3.15;;;2.80;;
76409;SDS011;65238;42.662;23.280;2023-04-25T00:15:00;3.80;;;2.88;;
76409;SDS011;65238;42.662;23.280;2023-04-25T00:20:23;3.03;;;2.25;;
76409;SDS011;65238;42.662;23.280;2023-04-25T00:22:49;6.03;;;2.30;;
76409;SDS011;65238;42.662;23.280;2023-04-25T00:25:15;2.67;;;2.38;;
76409;SDS011;65238;42.662;23.280;2023-04-25T00:27:41;2.40;;;2.20;;
76409;SDS011;65238;42.662;23.280;2023-04-25T00:30:07;2.47;;;1.80;;
76409;SDS011;65238;42.662;23.280;2023-04-25T00:32:32;2.17;;;1.60;;
76409;SDS011;65238;42.662;23.280;2023-04-25T00:34:58;4.97;;;2.70;;
76409;SDS011;65238;42.662;23.280;2023-04-25T00:37:24;6.93;;;2.80;;
76409;SDS011;65238;42.662;23.280;2023-04-25T00:39:50;4.72;;;3.17;;
76409;SDS011;65238;42.662;23.280;2023-04-25T00:42:15;4.65;;;3.47;;
76409;SDS011;65238;42.662;23.280;2023-04-25T00:44:41;3.78;;;2.75;;
76409;SDS011;65238;42.662;23.280;2023-04-25T00:47:07;8.30;;;3.22;;
76409;SDS011;65238;42.662;23.280;2023-04-25T00:49:33;5.97;;;3.30;;
76409;SDS011;65238;42.662;23.280;2023-04-25T00:51:58;3.22;;;2.85;;
76409;SDS011;65238;42.662;23.280;2023-04-25T00:54:24;6.85;;;2.88;;
76409;SDS011;65238;42.662;23.280;2023-04-25T00:56:50;8.85;;;2.83;;
76409;SDS011;65238;42.662;23.280;2023-04-25T00:59:15;3.83;;;3.03;;
76409;SDS011;65238;42.662;23.280;2023-04-25T01:01:42;7.07;;;2.90;;
76409;SDS011;65238;42.662;23.280;2023-04-25T01:04:07;4.18;;;3.42;;
76409;SDS011;65238;42.662;23.280;2023-04-25T01:06:33;5.88;;;3.60;;
76409;SDS011;65238;42.662;23.280;2023-04-25T01:08:58;3.65;;;3.17;;
76409;SDS011;65238;42.662;23.280;2023-04-25T01:11:24;5.95;;;3.25;;
76409;SDS011;65238;42.662;23.280;2023-04-25T01:13:50;4.43;;;3.90;;
76409;SDS011;65238;42.662;23.280;2023-04-25T01:16:15;4.80;;;4.22;;
76409;SDS011;65238;42.662;23.280;2023-04-25T01:18:41;6.47;;;4.63;;
76409;SDS011;65238;42.662;23.280;2023-04-25T01:21:10;6.10;;;4.78;;
76409;SDS011;65238;42.662;23.280;2023-04-25T01:23:38;7.38;;;5.45;;
76409;SDS011;65238;42.662;23.280;2023-04-25T01:26:05;7.22;;;5.53;;
76409;SDS011;65238;42.662;23.280;2023-04-25T01:28:32;6.53;;;5.43;;
76409;SDS011;65238;42.662;23.280;2023-04-25T01:30:58;7.30;;;5.22;;
76409;SDS011;65238;42.662;23.280;2023-04-25T01:33:24;8.25;;;5.85;;
76409;SDS011;65238;42.662;23.280;2023-04-25T01:35:50;8.10;;;5.68;;
76409;SDS011;65238;42.662;23.280;2023-04-25T01:38:15;9.70;;;6.10;;
76409;SDS011;65238;42.662;23.280;2023-04-25T01:40:41;8.32;;;6.10;;
76409;SDS011;65238;42.662;23.280;2023-04-25T01:43:07;8.75;;;6.13;;
76409;SDS011;65238;42.662;23.280;2023-04-25T01:45:36;10.07;;;6.38;;
76409;SDS011;65238;42.662;23.280;2023-04-25T01:48:04;8.75;;;6.32;;
76409;SDS011;65238;42.662;23.280;2023-04-25T01:50:30;8.63;;;6.25;;
76409;SDS011;65238;42.662;23.280;2023-04-25T01:52:55;8.38;;;6.03;;
76409;SDS011;65238;42.662;23.280;2023-04-25T01:55:21;8.60;;;6.15;;
76409;SDS011;65238;42.662;23.280;2023-04-25T01:57:46;11.50;;;6.40;;
76409;SDS011;65238;42.662;23.280;2023-04-25T02:00:12;8.65;;;6.55;;
76409;SDS011;65238;42.662;23.280;2023-04-25T02:02:37;9.15;;;7.05;;
76409;SDS011;65238;42.662;23.280;2023-04-25T02:05:03;10.23;;;7.18;;
76409;SDS011;65238;42.662;23.280;2023-04-25T02:07:29;8.88;;;6.85;;
76409;SDS011;65238;42.662;23.280;2023-04-25T02:09:54;9.93;;;7.63;;
76409;SDS011;65238;42.662;23.280;2023-04-25T02:12:19;11.45;;;7.55;;
76409;SDS011;65238;42.662;23.280;2023-04-25T02:14:45;11.02;;;7.72;;
76409;SDS011;65238;42.662;23.280;2023-04-25T02:17:10;10.35;;;6.75;;
76409;SDS011;65238;42.662;23.280;2023-04-25T02:19:37;10.77;;;7.10;;
76409;SDS011;65238;42.662;23.280;2023-04-25T02:22:03;11.25;;;7.72;;
76409;SDS011;65238;42.662;23.280;2023-04-25T02:24:28;11.25;;;7.63;;
76409;SDS011;65238;42.662;23.280;2023-04-25T02:26:54;10.38;;;7.47;;
76409;SDS011;65238;42.662;23.280;2023-04-25T02:29:20;12.27;;;7.47;;
76409;SDS011;65238;42.662;23.280;2023-04-25T02:31:46;11.40;;;7.65;;
76409;SDS011;65238;42.662;23.280;2023-04-25T02:34:11;11.98;;;7.57;;
76409;SDS011;65238;42.662;23.280;2023-04-25T02:36:37;11.15;;;7.72;;
76409;SDS011;65238;42.662;23.280;2023-04-25T02:39:02;8.13;;;6.38;;
76409;SDS011;65238;42.662;23.280;2023-04-25T02:41:28;7.60;;;6.28;;
76409;SDS011;65238;42.662;23.280;2023-04-25T02:43:53;11.93;;;6.60;;
76409;SDS011;65238;42.662;23.280;2023-04-25T02:46:19;11.35;;;8.02;;
76409;SDS011;65238;42.662;23.280;2023-04-25T02:48:45;10.45;;;7.63;;
76409;SDS011;65238;42.662;23.280;2023-04-25T02:51:10;14.75;;;8.73;;
76409;SDS011;65238;42.662;23.280;2023-04-25T02:53:35;11.20;;;8.18;;
76409;SDS011;65238;42.662;23.280;2023-04-25T02:56:01;13.70;;;7.78;;
76409;SDS011;65238;42.662;23.280;2023-04-25T02:58:26;10.88;;;7.68;;
76409;SDS011;65238;42.662;23.280;2023-04-25T03:00:52;7.90;;;6.50;;
76409;SDS011;65238;42.662;23.280;2023-04-25T03:03:17;10.52;;;7.40;;
76409;SDS011;65238;42.662;23.280;2023-04-25T03:05:46;9.32;;;6.88;;
76409;SDS011;65238;42.662;23.280;2023-04-25T03:08:11;9.48;;;7.78;;
76409;SDS011;65238;42.662;23.280;2023-04-25T03:10:38;11.85;;;8.13;;
76409;SDS011;65238;42.662;23.280;2023-04-25T03:13:03;10.48;;;7.60;;
76409;SDS011;65238;42.662;23.280;2023-04-25T03:15:29;10.25;;;7.30;;
76409;SDS011;65238;42.662;23.280;2023-04-25T03:17:56;11.65;;;7.00;;
76409;SDS011;65238;42.662;23.280;2023-04-25T03:20:21;9.15;;;6.18;;
76409;SDS011;65238;42.662;23.280;2023-04-25T03:22:47;10.90;;;7.22;;
76409;SDS011;65238;42.662;23.280;2023-04-25T03:25:12;11.80;;;7.68;;
76409;SDS011;65238;42.662;23.280;2023-04-25T03:27:37;10.77;;;7.50;;
76409;SDS011;65238;42.662;23.280;2023-04-25T03:30:03;10.50;;;7.43;;
76409;SDS011;65238;42.662;23.280;2023-04-25T03:32:29;13.00;;;7.90;;
76409;SDS011;65238;42.662;23.280;2023-04-25T03:34:54;15.35;;;8.50;;
76409;SDS011;65238;42.662;23.280;2023-04-25T03:37:20;12.80;;;8.20;;
76409;SDS011;65238;42.662;23.280;2023-04-25T03:39:46;12.73;;;8.23;;
76409;SDS011;65238;42.662;23.280;2023-04-25T03:42:11;13.20;;;8.50;;
76409;SDS011;65238;42.662;23.280;2023-04-25T03:44:36;12.38;;;8.60;;
76409;SDS011;65238;42.662;23.280;2023-04-25T03:47:02;11.98;;;9.05;;
76409;SDS011;65238;42.662;23.280;2023-04-25T03:49:27;10.73;;;8.50;;
76409;SDS011;65238;42.662;23.280;2023-04-25T03:51:52;11.82;;;8.38;;
76409;SDS011;65238;42.662;23.280;2023-04-25T03:54:18;10.27;;;7.85;;
76409;SDS011;65238;42.662;23.280;2023-04-25T03:56:43;13.40;;;9.35;;
76409;SDS011;65238;42.662;23.280;2023-04-25T03:59:09;12.43;;;8.68;;
76409;SDS011;65238;42.662;23.280;2023-04-25T04:01:34;10.88;;;7.32;;
76409;SDS011;65238;42.662;23.280;2023-04-25T04:04:00;11.70;;;7.60;;
76409;SDS011;65238;42.662;23.280;2023-04-25T04:06:26;9.75;;;7.20;;
76409;SDS011;65238;42.662;23.280;2023-04-25T04:08:51;9.82;;;7.13;;
76409;SDS011;65238;42.662;23.280;2023-04-25T04:11:17;10.80;;;7.93;;
76409;SDS011;65238;42.662;23.280;2023-04-25T04:13:42;10.90;;;7.40;;
76409;SDS011;65238;42.662;23.280;2023-04-25T04:16:07;10.90;;;7.72;;
76409;SDS011;65238;42.662;23.280;2023-04-25T04:18:33;12.02;;;7.85;;
76409;SDS011;65238;42.662;23.280;2023-04-25T04:20:59;14.52;;;7.78;;
76409;SDS011;65238;42.662;23.280;2023-04-25T04:23:24;10.13;;;7.03;;
76409;SDS011;65238;42.662;23.280;2023-04-25T04:25:52;12.65;;;6.93;;
76409;SDS011;65238;42.662;23.280;2023-04-25T04:28:19;8.48;;;6.07;;
76409;SDS011;65238;42.662;23.280;2023-04-25T04:30:45;9.20;;;6.28;;
76409;SDS011;65238;42.662;23.280;2023-04-25T04:33:12;10.48;;;6.68;;
76409;SDS011;65238;42.662;23.280;2023-04-25T04:35:37;8.48;;;5.95;;
76409;SDS011;65238;42.662;23.280;2023-04-25T04:38:03;9.32;;;7.10;;
76409;SDS011;65238;42.662;23.280;2023-04-25T04:40:29;12.07;;;6.60;;
76409;SDS011;65238;42.662;23.280;2023-04-25T04:42:56;9.75;;;7.07;;
76409;SDS011;65238;42.662;23.280;2023-04-25T04:45:22;10.38;;;7.03;;
76409;SDS011;65238;42.662;23.280;2023-04-25T04:47:48;9.70;;;7.32;;
76409;SDS011;65238;42.662;23.280;2023-04-25T04:50:14;9.77;;;6.75;;
76409;SDS011;65238;42.662;23.280;2023-04-25T04:52:41;11.88;;;7.40;;
76409;SDS011;65238;42.662;23.280;2023-04-25T04:55:07;11.73;;;7.00;;
76409;SDS011;65238;42.662;23.280;2023-04-25T04:57:33;10.65;;;7.22;;
76409;SDS011;65238;42.662;23.280;2023-04-25T04:59:59;11.93;;;7.47;;
76409;SDS011;65238;42.662;23.280;2023-04-25T05:02:25;8.85;;;6.80;;
76409;SDS011;65238;42.662;23.280;2023-04-25T05:04:51;9.32;;;6.43;;
76409;SDS011;65238;42.662;23.280;2023-04-25T05:07:17;9.35;;;6.82;;
76409;SDS011;65238;42.662;23.280;2023-04-25T05:09:43;9.25;;;6.28;;
76409;SDS011;65238;42.662;23.280;2023-04-25T05:12:08;8.30;;;6.18;;
76409;SDS011;65238;42.662;23.280;2023-04-25T05:14:34;9.55;;;6.20;;
76409;SDS011;65238;42.662;23.280;2023-04-25T05:16:59;8.98;;;6.50;;
76409;SDS011;65238;42.662;23.280;2023-04-25T05:19:25;9.85;;;6.93;;
76409;SDS011;65238;42.662;23.280;2023-04-25T05:21:51;9.23;;;6.63;;
76409;SDS011;65238;42.662;23.280;2023-04-25T05:24:17;9.93;;;7.13;;
76409;SDS011;65238;42.662;23.280;2023-04-25T05:26:42;12.63;;;7.63;;
76409;SDS011;65238;42.662;23.280;2023-04-25T05:29:07;10.50;;;7.63;;
76409;SDS011;65238;42.662;23.280;2023-04-25T05:31:33;12.10;;;7.88;;
76409;SDS011;65238;42.662;23.280;2023-04-25T05:33:58;10.43;;;7.57;;
76409;SDS011;65238;42.662;23.280;2023-04-25T05:36:24;10.73;;;7.32;;
76409;SDS011;65238;42.662;23.280;2023-04-25T05:38:49;10.20;;;7.50;;
76409;SDS011;65238;42.662;23.280;2023-04-25T05:41:15;12.32;;;8.60;;
76409;SDS011;65238;42.662;23.280;2023-04-25T05:43:40;12.80;;;8.02;;
76409;SDS011;65238;42.662;23.280;2023-04-25T05:46:10;10.02;;;7.90;;
76409;SDS011;65238;42.662;23.280;2023-04-25T05:48:36;10.05;;;7.35;;
76409;SDS011;65238;42.662;23.280;2023-04-25T05:51:02;11.77;;;8.13;;
76409;SDS011;65238;42.662;23.280;2023-04-25T05:53:28;12.07;;;8.77;;
76409;SDS011;65238;42.662;23.280;2023-04-25T05:55:53;13.60;;;8.73;;
76409;SDS011;65238;42.662;23.280;2023-04-25T05:58:18;12.85;;;9.25;;
76409;SDS011;65238;42.662;23.280;2023-04-25T06:00:44;13.80;;;9.43;;
76409;SDS011;65238;42.662;23.280;2023-04-25T06:03:11;11.82;;;8.95;;
76409;SDS011;65238;42.662;23.280;2023-04-25T06:05:39;13.82;;;8.88;;
76409;SDS011;65238;42.662;23.280;2023-04-25T06:08:06;15.63;;;9.68;;
76409;SDS011;65238;42.662;23.280;2023-04-25T06:10:31;14.27;;;9.25;;
76409;SDS011;65238;42.662;23.280;2023-04-25T06:12:56;12.90;;;8.50;;
76409;SDS011;65238;42.662;23.280;2023-04-25T06:15:22;12.52;;;8.45;;
76409;SDS011;65238;42.662;23.280;2023-04-25T06:17:47;11.40;;;8.45;;
76409;SDS011;65238;42.662;23.280;2023-04-25T06:20:13;11.40;;;8.40;;
76409;SDS011;65238;42.662;23.280;2023-04-25T06:22:39;15.10;;;9.18;;
76409;SDS011;65238;42.662;23.280;2023-04-25T06:25:04;16.02;;;9.90;;
76409;SDS011;65238;42.662;23.280;2023-04-25T06:27:32;14.80;;;9.73;;
76409;SDS011;65238;42.662;23.280;2023-04-25T06:29:57;14.30;;;9.07;;
76409;SDS011;65238;42.662;23.280;2023-04-25T06:32:23;14.50;;;9.63;;
76409;SDS011;65238;42.662;23.280;2023-04-25T06:34:48;15.38;;;9.70;;
76409;SDS011;65238;42.662;23.280;2023-04-25T06:37:14;14.73;;;9.10;;
76409;SDS011;65238;42.662;23.280;2023-04-25T06:39:39;11.43;;;8.57;;
76409;SDS011;65238;42.662;23.280;2023-04-25T06:42:05;17.42;;;8.25;;
76409;SDS011;65238;42.662;23.280;2023-04-25T06:44:30;17.23;;;8.82;;
76409;SDS011;65238;42.662;23.280;2023-04-25T06:46:56;16.50;;;9.48;;
76409;SDS011;65238;42.662;23.280;2023-04-25T06:49:21;13.18;;;7.78;;
76409;SDS011;65238;42.662;23.280;2023-04-25T06:51:47;13.23;;;8.38;;
76409;SDS011;65238;42.662;23.280;2023-04-25T06:54:12;12.43;;;7.70;;
76409;SDS011;65238;42.662;23.280;2023-04-25T06:56:38;11.52;;;7.28;;
76409;SDS011;65238;42.662;23.280;2023-04-25T06:59:03;10.23;;;7.25;;
76409;SDS011;65238;42.662;23.280;2023-04-25T07:01:29;12.55;;;6.80;;
76409;SDS011;65238;42.662;23.280;2023-04-25T07:03:54;11.85;;;7.00;;
76409;SDS011;65238;42.662;23.280;2023-04-25T07:06:20;12.63;;;7.95;;
76409;SDS011;65238;42.662;23.280;2023-04-25T07:08:45;12.63;;;8.85;;
76409;SDS011;65238;42.662;23.280;2023-04-25T07:11:11;15.45;;;8.75;;
76409;SDS011;65238;42.662;23.280;2023-04-25T07:13:36;13.40;;;8.80;;
76409;SDS011;65238;42.662;23.280;2023-04-25T07:16:02;13.75;;;8.80;;
76409;SDS011;65238;42.662;23.280;2023-04-25T07:18:28;14.65;;;8.80;;
76409;SDS011;65238;42.662;23.280;2023-04-25T07:20:53;12.10;;;9.13;;
76409;SDS011;65238;42.662;23.280;2023-04-25T07:23:18;13.70;;;8.38;;
76409;SDS011;65238;42.662;23.280;2023-04-25T07:25:44;14.05;;;8.55;;
76409;SDS011;65238;42.662;23.280;2023-04-25T07:28:09;14.55;;;8.45;;
76409;SDS011;65238;42.662;23.280;2023-04-25T07:30:35;19.02;;;9.18;;
76409;SDS011;65238;42.662;23.280;2023-04-25T07:33:01;13.02;;;9.02;;
76409;SDS011;65238;42.662;23.280;2023-04-25T07:35:27;14.57;;;7.90;;
76409;SDS011;65238;42.662;23.280;2023-04-25T07:37:52;16.92;;;7.78;;
76409;SDS011;65238;42.662;23.280;2023-04-25T07:40:18;13.52;;;7.72;;
76409;SDS011;65238;42.662;23.280;2023-04-25T07:42:43;11.05;;;7.40;;
76409;SDS011;65238;42.662;23.280;2023-04-25T07:45:08;12.15;;;7.72;;
76409;SDS011;65238;42.662;23.280;2023-04-25T07:47:34;15.52;;;7.22;;
76409;SDS011;65238;42.662;23.280;2023-04-25T07:50:00;13.93;;;7.03;;
76409;SDS011;65238;42.662;23.280;2023-04-25T07:52:26;12.93;;;7.53;;
76409;SDS011;65238;42.662;23.280;2023-04-25T07:54:51;11.48;;;7.50;;
76409;SDS011;65238;42.662;23.280;2023-04-25T07:57:17;13.32;;;7.65;;
76409;SDS011;65238;42.662;23.280;2023-04-25T07:59:43;11.95;;;7.40;;
76409;SDS011;65238;42.662;23.280;2023-04-25T08:02:08;12.70;;;7.45;;
76409;SDS011;65238;42.662;23.280;2023-04-25T08:04:34;14.63;;;6.68;;
76409;SDS011;65238;42.662;23.280;2023-04-25T08:06:59;10.35;;;6.88;;
76409;SDS011;65238;42.662;23.280;2023-04-25T08:09:25;14.23;;;7.57;;
76409;SDS011;65238;42.662;23.280;2023-04-25T08:11:50;11.60;;;6.22;;
76409;SDS011;65238;42.662;23.280;2023-04-25T08:14:16;11.10;;;6.25;;
76409;SDS011;65238;42.662;23.280;2023-04-25T08:16:41;13.02;;;5.97;;
76409;SDS011;65238;42.662;23.280;2023-04-25T08:19:07;9.18;;;5.63;;
76409;SDS011;65238;42.662;23.280;2023-04-25T08:21:32;13.05;;;5.85;;
76409;SDS011;65238;42.662;23.280;2023-04-25T08:23:58;11.02;;;6.20;;
76409;SDS011;65238;42.662;23.280;2023-04-25T08:26:24;8.85;;;5.93;;
76409;SDS011;65238;42.662;23.280;2023-04-25T08:28:50;10.18;;;5.72;;
76409;SDS011;65238;42.662;23.280;2023-04-25T08:31:16;11.82;;;5.85;;
76409;SDS011;65238;42.662;23.280;2023-04-25T08:33:41;8.88;;;5.55;;
76409;SDS011;65238;42.662;23.280;2023-04-25T08:36:07;4.20;;;3.40;;
76409;SDS011;65238;42.662;23.280;2023-04-25T08:38:33;5.28;;;4.22;;
76409;SDS011;65238;42.662;23.280;2023-04-25T08:40:58;5.75;;;3.55;;
76409;SDS011;65238;42.662;23.280;2023-04-25T08:43:25;6.00;;;3.30;;
76409;SDS011;65238;42.662;23.280;2023-04-25T08:45:51;3.15;;;2.53;;
76409;SDS011;65238;42.662;23.280;2023-04-25T08:48:18;7.32;;;2.80;;
76409;SDS011;65238;42.662;23.280;2023-04-25T08:50:51;4.57;;;2.90;;
76409;SDS011;65238;42.662;23.280;2023-04-25T08:53:21;5.72;;;2.55;;
76409;SDS011;65238;42.662;23.280;2023-04-25T08:55:49;6.40;;;2.35;;
76409;SDS011;65238;42.662;23.280;2023-04-25T08:58:16;3.22;;;2.40;;
76409;SDS011;65238;42.662;23.280;2023-04-25T09:00:43;5.30;;;3.92;;
76409;SDS011;65238;42.662;23.280;2023-04-25T09:03:08;11.13;;;4.07;;
76409;SDS011;65238;42.662;23.280;2023-04-25T09:05:35;5.53;;;3.47;;
76409;SDS011;65238;42.662;23.280;2023-04-25T09:08:01;5.15;;;3.40;;
76409;SDS011;65238;42.662;23.280;2023-04-25T09:10:27;6.93;;;3.83;;
76409;SDS011;65238;42.662;23.280;2023-04-25T09:13:03;5.65;;;3.30;;
76409;SDS011;65238;42.662;23.280;2023-04-25T09:15:33;2.85;;;1.95;;
76409;SDS011;65238;42.662;23.280;2023-04-25T09:18:12;5.55;;;2.67;;
76409;SDS011;65238;42.662;23.280;2023-04-25T09:20:41;9.13;;;4.13;;
76409;SDS011;65238;42.662;23.280;2023-04-25T09:23:07;4.30;;;1.70;;
76409;SDS011;65238;42.662;23.280;2023-04-25T09:25:34;1.45;;;1.33;;
76409;SDS011;65238;42.662;23.280;2023-04-25T09:28:05;4.88;;;2.33;;
76409;SDS011;65238;42.662;23.280;2023-04-25T09:30:32;4.75;;;2.60;;
76409;SDS011;65238;42.662;23.280;2023-04-25T09:35:35;3.08;;;1.70;;
76409;SDS011;65238;42.662;23.280;2023-04-25T09:38:06;1.60;;;1.33;;
76409;SDS011;65238;42.662;23.280;2023-04-25T09:40:39;2.22;;;1.50;;
76409;SDS011;65238;42.662;23.280;2023-04-25T09:43:29;1.42;;;1.25;;
76409;SDS011;65238;42.662;23.280;2023-04-25T09:45:54;1.33;;;1.10;;
76409;SDS011;65238;42.662;23.280;2023-04-25T09:48:24;1.55;;;0.90;;
76409;SDS011;65238;42.662;23.280;2023-04-25T09:51:03;1.85;;;1.08;;
76409;SDS011;65238;42.662;23.280;2023-04-25T09:53:30;1.65;;;1.00;;
76409;SDS011;65238;42.662;23.280;2023-04-25T09:55:57;2.33;;;0.93;;
76409;SDS011;65238;42.662;23.280;2023-04-25T09:58:25;1.45;;;1.10;;
76409;SDS011;65238;42.662;23.280;2023-04-25T10:00:51;1.92;;;1.00;;
76409;SDS011;65238;42.662;23.280;2023-04-25T10:03:17;2.85;;;1.30;;
76409;SDS011;65238;42.662;23.280;2023-04-25T10:05:45;4.50;;;1.80;;
76409;SDS011;65238;42.662;23.280;2023-04-25T10:08:12;2.95;;;1.85;;
76409;SDS011;65238;42.662;23.280;2023-04-25T10:10:38;5.55;;;1.20;;
76409;SDS011;65238;42.662;23.280;2023-04-25T10:13:05;4.30;;;1.27;;
76409;SDS011;65238;42.662;23.280;2023-04-25T10:15:32;4.03;;;0.93;;
76409;SDS011;65238;42.662;23.280;2023-04-25T10:18:00;1.75;;;0.90;;
76409;SDS011;65238;42.662;23.280;2023-04-25T10:20:26;2.38;;;0.82;;
76409;SDS011;65238;42.662;23.280;2023-04-25T10:22:51;1.60;;;0.90;;
76409;SDS011;65238;42.662;23.280;2023-04-25T10:25:21;3.28;;;1.15;;
76409;SDS011;65238;42.662;23.280;2023-04-25T10:27:49;1.92;;;1.00;;
76409;SDS011;65238;42.662;23.280;2023-04-25T10:30:16;2.85;;;1.20;;
76409;SDS011;65238;42.662;23.280;2023-04-25T10:32:43;1.95;;;1.05;;
76409;SDS011;65238;42.662;23.280;2023-04-25T10:35:23;3.45;;;0.90;;
76409;SDS011;65238;42.662;23.280;2023-04-25T10:37:56;2.15;;;0.73;;
76409;SDS011;65238;42.662;23.280;2023-04-25T10:40:28;0.70;;;0.70;;
76409;SDS011;65238;42.662;23.280;2023-04-25T10:42:55;1.33;;;0.80;;
76409;SDS011;65238;42.662;23.280;2023-04-25T10:45:21;2.22;;;1.27;;
76409;SDS011;65238;42.662;23.280;2023-04-25T10:47:46;1.02;;;0.70;;
76409;SDS011;65238;42.662;23.280;2023-04-25T10:50:15;2.50;;;0.75;;
76409;SDS011;65238;42.662;23.280;2023-04-25T10:52:44;2.10;;;0.63;;
76409;SDS011;65238;42.662;23.280;2023-04-25T10:55:09;1.42;;;0.50;;
76409;SDS011;65238;42.662;23.280;2023-04-25T11:02:46;2.25;;;0.77;;
76409;SDS011;65238;42.662;23.280;2023-04-25T11:05:18;2.95;;;1.00;;
76409;SDS011;65238;42.662;23.280;2023-04-25T11:10:16;3.92;;;0.90;;
76409;SDS011;65238;42.662;23.280;2023-04-25T11:12:42;1.52;;;0.68;;
76409;SDS011;65238;42.662;23.280;2023-04-25T11:15:09;0.82;;;0.70;;
76409;SDS011;65238;42.662;23.280;2023-04-25T11:17:34;1.02;;;0.47;;
76409;SDS011;65238;42.662;23.280;2023-04-25T11:20:00;0.88;;;0.50;;
76409;SDS011;65238;42.662;23.280;2023-04-25T11:22:26;2.47;;;1.02;;
76409;SDS011;65238;42.662;23.280;2023-04-25T11:24:52;3.63;;;0.77;;
76409;SDS011;65238;42.662;23.280;2023-04-25T11:27:18;7.60;;;1.00;;
76409;SDS011;65238;42.662;23.280;2023-04-25T11:29:44;1.83;;;0.77;;
76409;SDS011;65238;42.662;23.280;2023-04-25T11:32:10;1.30;;;0.82;;
76409;SDS011;65238;42.662;23.280;2023-04-25T11:34:35;1.38;;;0.90;;
76409;SDS011;65238;42.662;23.280;2023-04-25T11:37:01;2.60;;;0.80;;
76409;SDS011;65238;42.662;23.280;2023-04-25T11:39:27;1.55;;;0.75;;
76409;SDS011;65238;42.662;23.280;2023-04-25T11:41:54;1.83;;;0.70;;
76409;SDS011;65238;42.662;23.280;2023-04-25T11:44:20;3.05;;;0.60;;
76409;SDS011;65238;42.662;23.280;2023-04-25T11:46:48;0.93;;;0.70;;
76409;SDS011;65238;42.662;23.280;2023-04-25T11:49:15;2.25;;;0.90;;
76409;SDS011;65238;42.662;23.280;2023-04-25T11:51:43;1.08;;;0.70;;
76409;SDS011;65238;42.662;23.280;2023-04-25T11:54:10;0.93;;;0.70;;
76409;SDS011;65238;42.662;23.280;2023-04-25T11:56:36;0.82;;;0.73;;
76409;SDS011;65238;42.662;23.280;2023-04-25T11:59:03;0.88;;;0.65;;
76409;SDS011;65238;42.662;23.280;2023-04-25T12:01:30;2.70;;;1.10;;
76409;SDS011;65238;42.662;23.280;2023-04-25T12:03:56;6.07;;;1.08;;
76409;SDS011;65238;42.662;23.280;2023-04-25T12:06:25;4.28;;;1.00;;
76409;SDS011;65238;42.662;23.280;2023-04-25T12:08:58;3.33;;;1.13;;
76409;SDS011;65238;42.662;23.280;2023-04-25T12:14:09;3.92;;;1.20;;
76409;SDS011;65238;42.662;23.280;2023-04-25T12:16:42;2.25;;;0.80;;
76409;SDS011;65238;42.662;23.280;2023-04-25T12:19:15;1.13;;;0.63;;
76409;SDS011;65238;42.662;23.280;2023-04-25T12:21:41;4.40;;;1.10;;
76409;SDS011;65238;42.662;23.280;2023-04-25T12:24:10;2.80;;;1.08;;
76409;SDS011;65238;42.662;23.280;2023-04-25T12:29:30;11.25;;;1.13;;
76409;SDS011;65238;42.662;23.280;2023-04-25T12:31:57;0.95;;;0.60;;
76409;SDS011;65238;42.662;23.280;2023-04-25T12:34:23;2.92;;;0.60;;
76409;SDS011;65238;42.662;23.280;2023-04-25T12:36:49;2.70;;;1.70;;
76409;SDS011;65238;42.662;23.280;2023-04-25T12:39:20;2.65;;;0.85;;
76409;SDS011;65238;42.662;23.280;2023-04-25T12:41:47;1.90;;;0.47;;
76409;SDS011;65238;42.662;23.280;2023-04-25T12:44:13;2.17;;;0.80;;
76409;SDS011;65238;42.662;23.280;2023-04-25T12:46:38;1.73;;;0.70;;
76409;SDS011;65238;42.662;23.280;2023-04-25T12:49:05;1.00;;;0.60;;
76409;SDS011;65238;42.662;23.280;2023-04-25T12:51:33;1.15;;;0.40;;
76409;SDS011;65238;42.662;23.280;2023-04-25T12:54:02;2.40;;;0.40;;
76409;SDS011;65238;42.662;23.280;2023-04-25T12:56:29;3.40;;;0.60;;
76409;SDS011;65238;42.662;23.280;2023-04-25T12:58:55;2.70;;;0.80;;
76409;SDS011;65238;42.662;23.280;2023-04-25T13:01:21;1.13;;;0.80;;
76409;SDS011;65238;42.662;23.280;2023-04-25T13:03:46;0.73;;;0.50;;
76409;SDS011;65238;42.662;23.280;2023-04-25T13:06:13;2.47;;;0.70;;
76409;SDS011;65238;42.662;23.280;2023-04-25T13:08:38;4.45;;;0.98;;
76409;SDS011;65238;42.662;23.280;2023-04-25T13:16:14;3.60;;;1.55;;
76409;SDS011;65238;42.662;23.280;2023-04-25T13:18:40;7.97;;;1.83;;
76409;SDS011;65238;42.662;23.280;2023-04-25T13:21:06;4.10;;;1.70;;
76409;SDS011;65238;42.662;23.280;2023-04-25T13:23:31;6.43;;;1.90;;
76409;SDS011;65238;42.662;23.280;2023-04-25T13:25:57;7.15;;;2.22;;
76409;SDS011;65238;42.662;23.280;2023-04-25T13:28:23;4.38;;;2.30;;
76409;SDS011;65238;42.662;23.280;2023-04-25T13:30:49;5.57;;;2.90;;
76409;SDS011;65238;42.662;23.280;2023-04-25T13:33:15;5.07;;;2.55;;
76409;SDS011;65238;42.662;23.280;2023-04-25T13:35:44;5.25;;;2.55;;
76409;SDS011;65238;42.662;23.280;2023-04-25T13:38:12;3.00;;;1.70;;
76409;SDS011;65238;42.662;23.280;2023-04-25T13:40:38;4.22;;;1.83;;
76409;SDS011;65238;42.662;23.280;2023-04-25T13:43:03;3.05;;;1.50;;
76409;SDS011;65238;42.662;23.280;2023-04-25T13:45:29;2.22;;;1.10;;
76409;SDS011;65238;42.662;23.280;2023-04-25T13:47:54;3.88;;;1.23;;
76409;SDS011;65238;42.662;23.280;2023-04-25T13:50:20;1.20;;;0.90;;
76409;SDS011;65238;42.662;23.280;2023-04-25T13:52:45;4.40;;;1.30;;
76409;SDS011;65238;42.662;23.280;2023-04-25T13:55:10;1.35;;;1.10;;
76409;SDS011;65238;42.662;23.280;2023-04-25T13:57:39;4.68;;;2.25;;
76409;SDS011;65238;42.662;23.280;2023-04-25T14:01:01;2.08;;;1.30;;
76409;SDS011;65238;42.662;23.280;2023-04-25T14:03:26;5.82;;;1.52;;
76409;SDS011;65238;42.662;23.280;2023-04-25T14:05:52;2.28;;;1.27;;
76409;SDS011;65238;42.662;23.280;2023-04-25T14:08:17;2.92;;;1.20;;
76409;SDS011;65238;42.662;23.280;2023-04-25T14:10:42;1.60;;;1.10;;
76409;SDS011;65238;42.662;23.280;2023-04-25T14:13:08;3.38;;;1.77;;
76409;SDS011;65238;42.662;23.280;2023-04-25T14:15:33;5.05;;;2.13;;
76409;SDS011;65238;42.662;23.280;2023-04-25T14:17:59;3.33;;;1.95;;
76409;SDS011;65238;42.662;23.280;2023-04-25T14:20:26;3.65;;;1.65;;
76409;SDS011;65238;42.662;23.280;2023-04-25T14:22:52;5.22;;;2.97;;
76409;SDS011;65238;42.662;23.280;2023-04-25T14:25:19;6.13;;;2.60;;
76409;SDS011;65238;42.662;23.280;2023-04-25T14:27:44;4.00;;;1.80;;
76409;SDS011;65238;42.662;23.280;2023-04-25T14:30:14;2.42;;;1.42;;
76409;SDS011;65238;42.662;23.280;2023-04-25T14:32:40;4.55;;;2.47;;
76409;SDS011;65238;42.662;23.280;2023-04-25T14:35:06;5.90;;;3.58;;
76409;SDS011;65238;42.662;23.280;2023-04-25T14:37:32;4.82;;;2.70;;
76409;SDS011;65238;42.662;23.280;2023-04-25T14:39:58;5.40;;;2.40;;
76409;SDS011;65238;42.662;23.280;2023-04-25T14:42:23;6.88;;;2.35;;
76409;SDS011;65238;42.662;23.280;2023-04-25T14:44:48;4.47;;;2.42;;
76409;SDS011;65238;42.662;23.280;2023-04-25T14:47:14;3.35;;;2.28;;
76409;SDS011;65238;42.662;23.280;2023-04-25T14:49:40;4.47;;;2.33;;
76409;SDS011;65238;42.662;23.280;2023-04-25T14:52:06;3.25;;;1.88;;